sensor_id;sensor_type;location;lat;lon;timestamp;temperature;humidity
25342;DHT22;13298;48.792;9.154;2022-07-18T00:01:56;17.50;63.40
25342;DHT22;13298;48.792;9.154;2022-07-18T00:04:24;17.40;64.50
25342;DHT22;13298;48.792;9.154;2022-07-18T00:06:50;17.40;65.10
25342;DHT22;13298;48.792;9.154;2022-07-18T00:09:16;17.30;65.10
25342;DHT22;13298;48.792;9.154;2022-07-18T00:11:43;17.30;65.40
25342;DHT22;13298;48.792;9.154;2022-07-18T00:14:10;17.20;64.90
25342;DHT22;13298;48.792;9.154;2022-07-18T00:16:37;17.20;64.50
25342;DHT22;13298;48.792;9.154;2022-07-18T00:19:03;17.20;64.40
25342;DHT22;13298;48.792;9.154;2022-07-18T00:21:29;17.30;64.20
25342;DHT22;13298;48.792;9.154;2022-07-18T00:23:55;17.30;65.00
25342;DHT22;13298;48.792;9.154;2022-07-18T00:26:21;17.30;63.90
25342;DHT22;13298;48.792;9.154;2022-07-18T00:28:46;17.30;63.50
25342;DHT22;13298;48.792;9.154;2022-07-18T00:31:12;17.30;63.00
25342;DHT22;13298;48.792;9.154;2022-07-18T00:33:38;17.20;62.80
25342;DHT22;13298;48.792;9.154;2022-07-18T00:36:04;17.20;62.60
25342;DHT22;13298;48.792;9.154;2022-07-18T00:38:30;17.20;62.00
25342;DHT22;13298;48.792;9.154;2022-07-18T00:40:56;17.10;61.10
25342;DHT22;13298;48.792;9.154;2022-07-18T00:43:21;17.10;60.80
25342;DHT22;13298;48.792;9.154;2022-07-18T00:45:48;17.10;60.50
25342;DHT22;13298;48.792;9.154;2022-07-18T00:48:15;17.10;60.10
25342;DHT22;13298;48.792;9.154;2022-07-18T00:50:42;17.10;60.10
25342;DHT22;13298;48.792;9.154;2022-07-18T00:53:09;17.10;60.50
25342;DHT22;13298;48.792;9.154;2022-07-18T00:55:40;17.10;60.80
25342;DHT22;13298;48.792;9.154;2022-07-18T00:58:09;17.10;60.70
25342;DHT22;13298;48.792;9.154;2022-07-18T01:00:36;17.10;60.50
25342;DHT22;13298;48.792;9.154;2022-07-18T01:03:21;17.10;61.10
25342;DHT22;13298;48.792;9.154;2022-07-18T01:05:47;17.10;61.80
25342;DHT22;13298;48.792;9.154;2022-07-18T01:08:13;17.00;61.70
25342;DHT22;13298;48.792;9.154;2022-07-18T01:10:39;17.00;63.00
25342;DHT22;13298;48.792;9.154;2022-07-18T01:13:04;16.90;63.20
25342;DHT22;13298;48.792;9.154;2022-07-18T01:15:30;16.90;63.60
25342;DHT22;13298;48.792;9.154;2022-07-18T01:17:56;16.80;64.80
25342;DHT22;13298;48.792;9.154;2022-07-18T01:20:26;16.80;63.80
25342;DHT22;13298;48.792;9.154;2022-07-18T01:22:52;16.70;63.40
25342;DHT22;13298;48.792;9.154;2022-07-18T01:25:18;16.70;63.10
25342;DHT22;13298;48.792;9.154;2022-07-18T01:27:43;16.80;63.00
25342;DHT22;13298;48.792;9.154;2022-07-18T01:30:09;16.80;63.50
25342;DHT22;13298;48.792;9.154;2022-07-18T01:32:35;16.80;64.60
25342;DHT22;13298;48.792;9.154;2022-07-18T01:35:01;16.70;66.00
25342;DHT22;13298;48.792;9.154;2022-07-18T01:37:26;16.70;67.50
25342;DHT22;13298;48.792;9.154;2022-07-18T01:39:52;16.70;68.70
25342;DHT22;13298;48.792;9.154;2022-07-18T01:42:18;16.60;68.70
25342;DHT22;13298;48.792;9.154;2022-07-18T01:44:44;16.60;68.80
25342;DHT22;13298;48.792;9.154;2022-07-18T01:47:11;16.50;69.80
25342;DHT22;13298;48.792;9.154;2022-07-18T01:49:38;16.50;70.50
25342;DHT22;13298;48.792;9.154;2022-07-18T01:52:04;16.40;71.80
25342;DHT22;13298;48.792;9.154;2022-07-18T01:54:32;16.40;71.90
25342;DHT22;13298;48.792;9.154;2022-07-18T01:57:00;16.30;72.70
25342;DHT22;13298;48.792;9.154;2022-07-18T01:59:27;16.30;73.20
25342;DHT22;13298;48.792;9.154;2022-07-18T02:01:52;16.20;73.80
25342;DHT22;13298;48.792;9.154;2022-07-18T02:04:18;16.20;73.90
25342;DHT22;13298;48.792;9.154;2022-07-18T02:06:45;16.20;73.90
25342;DHT22;13298;48.792;9.154;2022-07-18T02:09:11;16.10;73.60
25342;DHT22;13298;48.792;9.154;2022-07-18T02:11:37;16.10;73.60
25342;DHT22;13298;48.792;9.154;2022-07-18T02:14:05;16.20;73.50
25342;DHT22;13298;48.792;9.154;2022-07-18T02:16:31;16.10;74.40
25342;DHT22;13298;48.792;9.154;2022-07-18T02:18:57;16.10;74.30
25342;DHT22;13298;48.792;9.154;2022-07-18T02:21:23;16.10;74.40
25342;DHT22;13298;48.792;9.154;2022-07-18T02:23:49;16.00;74.40
25342;DHT22;13298;48.792;9.154;2022-07-18T02:26:17;16.00;74.60
25342;DHT22;13298;48.792;9.154;2022-07-18T02:28:43;16.00;75.10
25342;DHT22;13298;48.792;9.154;2022-07-18T02:31:09;15.90;74.90
25342;DHT22;13298;48.792;9.154;2022-07-18T02:33:35;15.80;75.50
25342;DHT22;13298;48.792;9.154;2022-07-18T02:36:00;15.80;75.30
25342;DHT22;13298;48.792;9.154;2022-07-18T02:38:26;15.80;75.90
25342;DHT22;13298;48.792;9.154;2022-07-18T02:40:52;15.80;76.20
25342;DHT22;13298;48.792;9.154;2022-07-18T02:43:18;15.70;75.90
25342;DHT22;13298;48.792;9.154;2022-07-18T02:45:43;15.60;76.50
25342;DHT22;13298;48.792;9.154;2022-07-18T02:48:09;15.60;76.60
25342;DHT22;13298;48.792;9.154;2022-07-18T02:50:35;15.60;77.90
25342;DHT22;13298;48.792;9.154;2022-07-18T02:53:01;15.60;78.60
25342;DHT22;13298;48.792;9.154;2022-07-18T02:55:26;15.50;79.60
25342;DHT22;13298;48.792;9.154;2022-07-18T02:57:52;15.50;79.40
25342;DHT22;13298;48.792;9.154;2022-07-18T03:00:18;15.50;78.90
25342;DHT22;13298;48.792;9.154;2022-07-18T03:02:44;15.40;79.20
25342;DHT22;13298;48.792;9.154;2022-07-18T03:05:11;15.40;79.20
25342;DHT22;13298;48.792;9.154;2022-07-18T03:07:37;15.40;80.90
25342;DHT22;13298;48.792;9.154;2022-07-18T03:10:04;15.30;81.00
25342;DHT22;13298;48.792;9.154;2022-07-18T03:12:31;15.30;80.80
25342;DHT22;13298;48.792;9.154;2022-07-18T03:14:57;15.30;81.50
25342;DHT22;13298;48.792;9.154;2022-07-18T03:17:24;15.20;81.20
25342;DHT22;13298;48.792;9.154;2022-07-18T03:19:50;15.30;81.30
25342;DHT22;13298;48.792;9.154;2022-07-18T03:22:16;15.20;81.50
25342;DHT22;13298;48.792;9.154;2022-07-18T03:24:42;15.20;82.60
25342;DHT22;13298;48.792;9.154;2022-07-18T03:27:07;15.20;83.40
25342;DHT22;13298;48.792;9.154;2022-07-18T03:29:33;15.10;83.50
25342;DHT22;13298;48.792;9.154;2022-07-18T03:31:58;15.10;83.80
25342;DHT22;13298;48.792;9.154;2022-07-18T03:34:24;15.10;84.50
25342;DHT22;13298;48.792;9.154;2022-07-18T03:36:50;15.00;84.50
25342;DHT22;13298;48.792;9.154;2022-07-18T03:39:16;15.00;85.30
25342;DHT22;13298;48.792;9.154;2022-07-18T03:41:42;15.00;85.50
25342;DHT22;13298;48.792;9.154;2022-07-18T03:44:08;15.00;85.70
25342;DHT22;13298;48.792;9.154;2022-07-18T03:46:34;14.90;85.70
25342;DHT22;13298;48.792;9.154;2022-07-18T03:49:00;15.00;86.00
25342;DHT22;13298;48.792;9.154;2022-07-18T03:51:26;15.00;86.70
25342;DHT22;13298;48.792;9.154;2022-07-18T03:53:52;14.90;87.10
25342;DHT22;13298;48.792;9.154;2022-07-18T03:56:18;14.90;87.30
25342;DHT22;13298;48.792;9.154;2022-07-18T03:58:43;14.90;87.50
25342;DHT22;13298;48.792;9.154;2022-07-18T04:01:09;15.00;87.90
25342;DHT22;13298;48.792;9.154;2022-07-18T04:03:35;14.90;88.40
25342;DHT22;13298;48.792;9.154;2022-07-18T04:06:01;15.00;87.60
25342;DHT22;13298;48.792;9.154;2022-07-18T04:08:27;14.90;87.90
25342;DHT22;13298;48.792;9.154;2022-07-18T04:10:53;14.90;88.20
25342;DHT22;13298;48.792;9.154;2022-07-18T04:13:19;14.90;88.10
25342;DHT22;13298;48.792;9.154;2022-07-18T04:15:45;15.00;88.80
25342;DHT22;13298;48.792;9.154;2022-07-18T04:18:11;15.00;89.40
25342;DHT22;13298;48.792;9.154;2022-07-18T04:20:37;15.10;89.60
25342;DHT22;13298;48.792;9.154;2022-07-18T04:23:08;15.10;89.30
25342;DHT22;13298;48.792;9.154;2022-07-18T04:25:36;15.20;89.30
25342;DHT22;13298;48.792;9.154;2022-07-18T04:28:07;15.30;88.80
25342;DHT22;13298;48.792;9.154;2022-07-18T04:30:35;15.40;89.10
25342;DHT22;13298;48.792;9.154;2022-07-18T04:33:03;15.40;88.70
25342;DHT22;13298;48.792;9.154;2022-07-18T04:35:30;15.50;88.70
25342;DHT22;13298;48.792;9.154;2022-07-18T04:37:56;15.60;88.80
25342;DHT22;13298;48.792;9.154;2022-07-18T04:40:22;15.70;88.90
25342;DHT22;13298;48.792;9.154;2022-07-18T04:42:48;15.70;88.70
25342;DHT22;13298;48.792;9.154;2022-07-18T04:45:14;15.80;88.40
25342;DHT22;13298;48.792;9.154;2022-07-18T04:47:41;15.90;87.90
25342;DHT22;13298;48.792;9.154;2022-07-18T04:50:07;15.90;88.20
25342;DHT22;13298;48.792;9.154;2022-07-18T04:52:41;16.00;87.50
25342;DHT22;13298;48.792;9.154;2022-07-18T04:55:09;16.10;87.60
25342;DHT22;13298;48.792;9.154;2022-07-18T04:57:37;16.20;87.50
25342;DHT22;13298;48.792;9.154;2022-07-18T05:00:12;16.30;86.20
25342;DHT22;13298;48.792;9.154;2022-07-18T05:02:41;16.40;85.60
25342;DHT22;13298;48.792;9.154;2022-07-18T05:05:07;16.50;85.10
25342;DHT22;13298;48.792;9.154;2022-07-18T05:07:35;16.60;85.00
25342;DHT22;13298;48.792;9.154;2022-07-18T05:10:01;16.70;85.50
25342;DHT22;13298;48.792;9.154;2022-07-18T05:12:29;16.80;85.50
25342;DHT22;13298;48.792;9.154;2022-07-18T05:14:55;16.90;84.80
25342;DHT22;13298;48.792;9.154;2022-07-18T05:17:20;17.00;83.80
25342;DHT22;13298;48.792;9.154;2022-07-18T05:19:46;17.10;83.30
25342;DHT22;13298;48.792;9.154;2022-07-18T05:22:12;17.30;82.90
25342;DHT22;13298;48.792;9.154;2022-07-18T05:24:38;17.50;82.20
25342;DHT22;13298;48.792;9.154;2022-07-18T05:27:03;17.70;81.00
25342;DHT22;13298;48.792;9.154;2022-07-18T05:29:29;17.90;79.90
25342;DHT22;13298;48.792;9.154;2022-07-18T05:31:56;18.20;79.20
25342;DHT22;13298;48.792;9.154;2022-07-18T05:34:21;18.50;78.20
25342;DHT22;13298;48.792;9.154;2022-07-18T05:36:47;18.90;76.70
25342;DHT22;13298;48.792;9.154;2022-07-18T05:39:13;19.30;75.40
25342;DHT22;13298;48.792;9.154;2022-07-18T05:41:38;19.50;73.70
25342;DHT22;13298;48.792;9.154;2022-07-18T05:44:04;19.60;73.20
25342;DHT22;13298;48.792;9.154;2022-07-18T05:46:30;19.60;72.10
25342;DHT22;13298;48.792;9.154;2022-07-18T05:48:56;19.70;72.20
25342;DHT22;13298;48.792;9.154;2022-07-18T05:51:21;19.70;72.50
25342;DHT22;13298;48.792;9.154;2022-07-18T05:53:48;19.80;72.50
25342;DHT22;13298;48.792;9.154;2022-07-18T05:56:14;20.00;71.90
25342;DHT22;13298;48.792;9.154;2022-07-18T05:58:39;20.10;71.10
25342;DHT22;13298;48.792;9.154;2022-07-18T06:01:05;20.10;70.60
25342;DHT22;13298;48.792;9.154;2022-07-18T06:03:31;20.20;69.70
25342;DHT22;13298;48.792;9.154;2022-07-18T06:05:57;20.20;69.40
25342;DHT22;13298;48.792;9.154;2022-07-18T06:08:23;20.30;69.20
25342;DHT22;13298;48.792;9.154;2022-07-18T06:10:48;20.30;68.90
25342;DHT22;13298;48.792;9.154;2022-07-18T06:13:14;20.40;68.60
25342;DHT22;13298;48.792;9.154;2022-07-18T06:15:40;20.50;68.40
25342;DHT22;13298;48.792;9.154;2022-07-18T06:18:06;20.60;68.10
25342;DHT22;13298;48.792;9.154;2022-07-18T06:20:31;20.60;68.40
25342;DHT22;13298;48.792;9.154;2022-07-18T06:22:57;20.70;68.60
25342;DHT22;13298;48.792;9.154;2022-07-18T06:25:23;20.90;68.60
25342;DHT22;13298;48.792;9.154;2022-07-18T06:27:48;21.00;68.50
25342;DHT22;13298;48.792;9.154;2022-07-18T06:30:14;21.20;68.20
25342;DHT22;13298;48.792;9.154;2022-07-18T06:32:40;21.30;67.70
25342;DHT22;13298;48.792;9.154;2022-07-18T06:35:06;21.50;67.50
25342;DHT22;13298;48.792;9.154;2022-07-18T06:37:33;21.60;67.40
25342;DHT22;13298;48.792;9.154;2022-07-18T06:39:59;21.70;67.30
25342;DHT22;13298;48.792;9.154;2022-07-18T06:42:24;21.70;67.20
25342;DHT22;13298;48.792;9.154;2022-07-18T06:44:50;21.70;67.00
25342;DHT22;13298;48.792;9.154;2022-07-18T06:47:16;21.90;67.10
25342;DHT22;13298;48.792;9.154;2022-07-18T06:49:41;22.00;66.80
25342;DHT22;13298;48.792;9.154;2022-07-18T06:52:07;22.00;66.60
25342;DHT22;13298;48.792;9.154;2022-07-18T06:54:37;22.10;66.30
25342;DHT22;13298;48.792;9.154;2022-07-18T06:57:04;22.20;66.20
25342;DHT22;13298;48.792;9.154;2022-07-18T06:59:33;22.30;66.10
25342;DHT22;13298;48.792;9.154;2022-07-18T07:01:59;22.40;66.10
25342;DHT22;13298;48.792;9.154;2022-07-18T07:04:25;22.60;65.60
25342;DHT22;13298;48.792;9.154;2022-07-18T07:06:50;22.70;64.80
25342;DHT22;13298;48.792;9.154;2022-07-18T07:09:16;22.80;64.50
25342;DHT22;13298;48.792;9.154;2022-07-18T07:11:42;22.90;63.70
25342;DHT22;13298;48.792;9.154;2022-07-18T07:14:07;23.00;62.80
25342;DHT22;13298;48.792;9.154;2022-07-18T07:16:33;23.10;62.50
25342;DHT22;13298;48.792;9.154;2022-07-18T07:18:59;23.20;62.10
25342;DHT22;13298;48.792;9.154;2022-07-18T07:21:24;23.30;61.90
25342;DHT22;13298;48.792;9.154;2022-07-18T07:23:50;23.30;61.70
25342;DHT22;13298;48.792;9.154;2022-07-18T07:26:16;23.40;60.30
25342;DHT22;13298;48.792;9.154;2022-07-18T07:28:41;23.40;60.70
25342;DHT22;13298;48.792;9.154;2022-07-18T07:31:07;23.50;60.70
25342;DHT22;13298;48.792;9.154;2022-07-18T07:33:33;23.60;59.00
25342;DHT22;13298;48.792;9.154;2022-07-18T07:36:00;23.70;59.50
25342;DHT22;13298;48.792;9.154;2022-07-18T07:38:26;23.80;59.50
25342;DHT22;13298;48.792;9.154;2022-07-18T07:40:54;23.90;58.90
25342;DHT22;13298;48.792;9.154;2022-07-18T07:43:20;24.00;59.10
25342;DHT22;13298;48.792;9.154;2022-07-18T07:45:48;24.10;57.90
25342;DHT22;13298;48.792;9.154;2022-07-18T07:48:16;24.20;57.20
25342;DHT22;13298;48.792;9.154;2022-07-18T07:50:42;24.30;56.60
25342;DHT22;13298;48.792;9.154;2022-07-18T07:53:09;24.50;56.60
25342;DHT22;13298;48.792;9.154;2022-07-18T07:55:35;24.60;55.70
25342;DHT22;13298;48.792;9.154;2022-07-18T07:58:01;24.70;55.60
25342;DHT22;13298;48.792;9.154;2022-07-18T08:00:28;24.80;57.00
25342;DHT22;13298;48.792;9.154;2022-07-18T08:03:01;25.00;56.20
25342;DHT22;13298;48.792;9.154;2022-07-18T08:05:34;25.10;55.00
25342;DHT22;13298;48.792;9.154;2022-07-18T08:08:03;25.20;55.30
25342;DHT22;13298;48.792;9.154;2022-07-18T08:10:29;25.30;54.30
25342;DHT22;13298;48.792;9.154;2022-07-18T08:12:55;25.40;54.00
25342;DHT22;13298;48.792;9.154;2022-07-18T08:15:21;25.50;54.00
25342;DHT22;13298;48.792;9.154;2022-07-18T08:17:47;25.60;54.50
25342;DHT22;13298;48.792;9.154;2022-07-18T08:20:12;25.60;52.80
25342;DHT22;13298;48.792;9.154;2022-07-18T08:23:00;25.60;53.70
25342;DHT22;13298;48.792;9.154;2022-07-18T08:25:27;25.70;53.40
25342;DHT22;13298;48.792;9.154;2022-07-18T08:27:54;25.80;52.90
25342;DHT22;13298;48.792;9.154;2022-07-18T08:30:21;25.80;52.20
25342;DHT22;13298;48.792;9.154;2022-07-18T08:32:47;25.80;52.80
25342;DHT22;13298;48.792;9.154;2022-07-18T08:35:13;26.00;54.00
25342;DHT22;13298;48.792;9.154;2022-07-18T08:37:39;26.00;54.00
25342;DHT22;13298;48.792;9.154;2022-07-18T08:40:06;26.00;53.30
25342;DHT22;13298;48.792;9.154;2022-07-18T08:42:33;26.10;54.40
25342;DHT22;13298;48.792;9.154;2022-07-18T08:44:59;26.20;53.80
25342;DHT22;13298;48.792;9.154;2022-07-18T08:47:28;26.20;53.60
25342;DHT22;13298;48.792;9.154;2022-07-18T08:49:58;26.30;53.30
25342;DHT22;13298;48.792;9.154;2022-07-18T08:52:26;26.30;53.00
25342;DHT22;13298;48.792;9.154;2022-07-18T08:54:52;26.40;52.70
25342;DHT22;13298;48.792;9.154;2022-07-18T08:57:18;26.50;51.60
25342;DHT22;13298;48.792;9.154;2022-07-18T08:59:44;26.40;51.90
25342;DHT22;13298;48.792;9.154;2022-07-18T09:02:10;26.50;51.70
25342;DHT22;13298;48.792;9.154;2022-07-18T09:04:41;26.50;51.50
25342;DHT22;13298;48.792;9.154;2022-07-18T09:07:09;26.50;51.20
25342;DHT22;13298;48.792;9.154;2022-07-18T09:09:36;26.50;50.50
25342;DHT22;13298;48.792;9.154;2022-07-18T09:12:07;26.50;51.10
25342;DHT22;13298;48.792;9.154;2022-07-18T09:14:43;26.60;51.10
25342;DHT22;13298;48.792;9.154;2022-07-18T09:17:19;26.70;49.70
25342;DHT22;13298;48.792;9.154;2022-07-18T09:22:38;26.80;50.20
25342;DHT22;13298;48.792;9.154;2022-07-18T09:27:40;27.10;48.40
25342;DHT22;13298;48.792;9.154;2022-07-18T09:30:23;27.20;47.20
25342;DHT22;13298;48.792;9.154;2022-07-18T09:35:31;27.30;46.50
25342;DHT22;13298;48.792;9.154;2022-07-18T09:40:42;27.40;48.50
25342;DHT22;13298;48.792;9.154;2022-07-18T09:43:11;27.50;49.50
25342;DHT22;13298;48.792;9.154;2022-07-18T09:45:49;27.50;49.00
25342;DHT22;13298;48.792;9.154;2022-07-18T09:50:53;27.60;47.90
25342;DHT22;13298;48.792;9.154;2022-07-18T09:53:23;27.50;47.40
25342;DHT22;13298;48.792;9.154;2022-07-18T09:55:54;27.60;47.90
25342;DHT22;13298;48.792;9.154;2022-07-18T09:58:27;27.60;46.60
25342;DHT22;13298;48.792;9.154;2022-07-18T10:00:57;27.60;47.00
25342;DHT22;13298;48.792;9.154;2022-07-18T10:03:24;27.70;45.90
25342;DHT22;13298;48.792;9.154;2022-07-18T10:05:51;27.70;45.60
25342;DHT22;13298;48.792;9.154;2022-07-18T10:08:19;27.80;44.90
25342;DHT22;13298;48.792;9.154;2022-07-18T10:10:49;27.80;44.70
25342;DHT22;13298;48.792;9.154;2022-07-18T10:13:16;27.90;45.80
25342;DHT22;13298;48.792;9.154;2022-07-18T10:15:44;28.00;45.30
25342;DHT22;13298;48.792;9.154;2022-07-18T10:18:14;28.20;45.20
25342;DHT22;13298;48.792;9.154;2022-07-18T10:21:08;28.20;44.10
25342;DHT22;13298;48.792;9.154;2022-07-18T10:23:39;28.30;43.50
25342;DHT22;13298;48.792;9.154;2022-07-18T10:26:24;28.30;43.70
25342;DHT22;13298;48.792;9.154;2022-07-18T10:31:30;28.20;43.10
25342;DHT22;13298;48.792;9.154;2022-07-18T10:36:36;28.30;43.60
25342;DHT22;13298;48.792;9.154;2022-07-18T10:39:16;28.40;43.80
25342;DHT22;13298;48.792;9.154;2022-07-18T11:21:22;29.10;40.80
25342;DHT22;13298;48.792;9.154;2022-07-18T11:23:52;29.10;39.90
25342;DHT22;13298;48.792;9.154;2022-07-18T11:26:21;29.10;39.80
25342;DHT22;13298;48.792;9.154;2022-07-18T11:28:48;29.20;39.30
25342;DHT22;13298;48.792;9.154;2022-07-18T11:31:21;29.30;39.90
25342;DHT22;13298;48.792;9.154;2022-07-18T11:33:49;29.40;40.30
25342;DHT22;13298;48.792;9.154;2022-07-18T11:36:18;29.40;38.70
25342;DHT22;13298;48.792;9.154;2022-07-18T11:41:15;29.40;38.70
25342;DHT22;13298;48.792;9.154;2022-07-18T11:43:44;29.40;39.40
25342;DHT22;13298;48.792;9.154;2022-07-18T11:46:12;29.40;38.90
25342;DHT22;13298;48.792;9.154;2022-07-18T11:48:39;29.40;38.60
25342;DHT22;13298;48.792;9.154;2022-07-18T11:51:10;29.40;37.90
25342;DHT22;13298;48.792;9.154;2022-07-18T11:53:42;29.40;37.80
25342;DHT22;13298;48.792;9.154;2022-07-18T11:56:20;29.40;38.50
25342;DHT22;13298;48.792;9.154;2022-07-18T11:58:48;29.40;37.90
25342;DHT22;13298;48.792;9.154;2022-07-18T12:01:15;29.50;38.30
25342;DHT22;13298;48.792;9.154;2022-07-18T12:03:44;29.60;38.00
25342;DHT22;13298;48.792;9.154;2022-07-18T12:06:15;29.70;38.10
25342;DHT22;13298;48.792;9.154;2022-07-18T12:08:53;29.80;38.30
25342;DHT22;13298;48.792;9.154;2022-07-18T12:11:32;29.90;38.40
25342;DHT22;13298;48.792;9.154;2022-07-18T12:14:15;30.10;38.40
25342;DHT22;13298;48.792;9.154;2022-07-18T12:16:47;30.20;37.20
25342;DHT22;13298;48.792;9.154;2022-07-18T12:19:21;30.20;37.60
25342;DHT22;13298;48.792;9.154;2022-07-18T12:24:35;30.30;36.90
25342;DHT22;13298;48.792;9.154;2022-07-18T12:27:13;30.30;36.10
25342;DHT22;13298;48.792;9.154;2022-07-18T12:32:51;30.30;36.20
25342;DHT22;13298;48.792;9.154;2022-07-18T12:35:34;30.30;35.50
25342;DHT22;13298;48.792;9.154;2022-07-18T12:38:12;30.30;36.20
25342;DHT22;13298;48.792;9.154;2022-07-18T12:41:01;30.20;36.20
25342;DHT22;13298;48.792;9.154;2022-07-18T12:43:30;30.10;36.30
25342;DHT22;13298;48.792;9.154;2022-07-18T12:45:58;30.10;37.00
25342;DHT22;13298;48.792;9.154;2022-07-18T12:48:27;30.10;36.50
25342;DHT22;13298;48.792;9.154;2022-07-18T12:51:02;30.20;37.00
25342;DHT22;13298;48.792;9.154;2022-07-18T12:53:31;30.20;37.40
25342;DHT22;13298;48.792;9.154;2022-07-18T12:56:00;30.30;36.90
25342;DHT22;13298;48.792;9.154;2022-07-18T12:58:25;30.30;36.40
25342;DHT22;13298;48.792;9.154;2022-07-18T13:00:51;30.30;36.40
25342;DHT22;13298;48.792;9.154;2022-07-18T13:03:17;30.40;36.70
25342;DHT22;13298;48.792;9.154;2022-07-18T13:05:43;30.50;35.90
25342;DHT22;13298;48.792;9.154;2022-07-18T13:08:09;30.50;36.30
25342;DHT22;13298;48.792;9.154;2022-07-18T13:10:37;30.50;36.70
25342;DHT22;13298;48.792;9.154;2022-07-18T13:13:04;30.60;38.00
25342;DHT22;13298;48.792;9.154;2022-07-18T13:15:31;30.60;38.80
25342;DHT22;13298;48.792;9.154;2022-07-18T13:17:57;30.60;37.60
25342;DHT22;13298;48.792;9.154;2022-07-18T13:20:23;30.60;37.60
25342;DHT22;13298;48.792;9.154;2022-07-18T13:22:50;30.70;37.30
25342;DHT22;13298;48.792;9.154;2022-07-18T13:25:16;30.80;37.30
25342;DHT22;13298;48.792;9.154;2022-07-18T13:27:42;30.80;36.10
25342;DHT22;13298;48.792;9.154;2022-07-18T13:30:08;30.80;36.00
25342;DHT22;13298;48.792;9.154;2022-07-18T13:32:35;30.80;37.60
25342;DHT22;13298;48.792;9.154;2022-07-18T13:35:02;30.90;37.60
25342;DHT22;13298;48.792;9.154;2022-07-18T13:37:28;30.90;36.70
25342;DHT22;13298;48.792;9.154;2022-07-18T13:39:54;30.90;36.20
25342;DHT22;13298;48.792;9.154;2022-07-18T13:42:19;31.00;37.70
25342;DHT22;13298;48.792;9.154;2022-07-18T13:44:45;31.00;36.50
25342;DHT22;13298;48.792;9.154;2022-07-18T13:47:12;31.00;35.60
25342;DHT22;13298;48.792;9.154;2022-07-18T13:49:38;31.10;36.20
25342;DHT22;13298;48.792;9.154;2022-07-18T13:52:04;31.10;37.60
25342;DHT22;13298;48.792;9.154;2022-07-18T13:54:30;31.20;36.80
25342;DHT22;13298;48.792;9.154;2022-07-18T13:56:56;31.30;36.50
25342;DHT22;13298;48.792;9.154;2022-07-18T13:59:21;31.50;35.80
25342;DHT22;13298;48.792;9.154;2022-07-18T14:01:47;31.60;36.10
25342;DHT22;13298;48.792;9.154;2022-07-18T14:04:15;31.70;34.70
25342;DHT22;13298;48.792;9.154;2022-07-18T14:06:41;31.70;34.90
25342;DHT22;13298;48.792;9.154;2022-07-18T14:09:07;31.70;35.20
25342;DHT22;13298;48.792;9.154;2022-07-18T14:11:32;31.90;35.10
25342;DHT22;13298;48.792;9.154;2022-07-18T14:14:00;32.00;37.40
25342;DHT22;13298;48.792;9.154;2022-07-18T14:16:26;32.10;35.90
25342;DHT22;13298;48.792;9.154;2022-07-18T14:18:52;32.20;35.60
25342;DHT22;13298;48.792;9.154;2022-07-18T14:21:17;32.40;35.70
25342;DHT22;13298;48.792;9.154;2022-07-18T14:23:43;32.40;34.90
25342;DHT22;13298;48.792;9.154;2022-07-18T14:26:09;32.40;35.50
25342;DHT22;13298;48.792;9.154;2022-07-18T14:28:34;32.50;35.20
25342;DHT22;13298;48.792;9.154;2022-07-18T14:31:00;32.50;36.00
25342;DHT22;13298;48.792;9.154;2022-07-18T14:33:26;32.60;35.90
25342;DHT22;13298;48.792;9.154;2022-07-18T14:35:51;32.60;36.00
25342;DHT22;13298;48.792;9.154;2022-07-18T14:38:17;32.70;35.90
25342;DHT22;13298;48.792;9.154;2022-07-18T14:40:43;32.80;34.90
25342;DHT22;13298;48.792;9.154;2022-07-18T14:43:08;32.60;35.60
25342;DHT22;13298;48.792;9.154;2022-07-18T14:45:34;32.50;35.50
25342;DHT22;13298;48.792;9.154;2022-07-18T14:48:00;32.40;35.00
25342;DHT22;13298;48.792;9.154;2022-07-18T14:50:26;32.40;36.00
25342;DHT22;13298;48.792;9.154;2022-07-18T14:52:52;32.60;36.70
25342;DHT22;13298;48.792;9.154;2022-07-18T14:55:17;32.70;35.90
25342;DHT22;13298;48.792;9.154;2022-07-18T14:57:43;32.80;35.70
25342;DHT22;13298;48.792;9.154;2022-07-18T15:00:09;32.80;35.80
25342;DHT22;13298;48.792;9.154;2022-07-18T15:02:37;32.90;36.00
25342;DHT22;13298;48.792;9.154;2022-07-18T15:05:03;33.00;36.00
25342;DHT22;13298;48.792;9.154;2022-07-18T15:07:30;33.10;34.90
25342;DHT22;13298;48.792;9.154;2022-07-18T15:09:56;33.10;36.00
25342;DHT22;13298;48.792;9.154;2022-07-18T15:12:21;33.30;35.80
25342;DHT22;13298;48.792;9.154;2022-07-18T15:14:47;33.40;35.30
25342;DHT22;13298;48.792;9.154;2022-07-18T15:17:13;33.50;35.40
25342;DHT22;13298;48.792;9.154;2022-07-18T15:19:39;33.60;35.00
25342;DHT22;13298;48.792;9.154;2022-07-18T15:22:23;33.70;34.70
25342;DHT22;13298;48.792;9.154;2022-07-18T15:24:49;33.70;34.60
25342;DHT22;13298;48.792;9.154;2022-07-18T15:27:14;33.70;35.00
25342;DHT22;13298;48.792;9.154;2022-07-18T15:29:40;33.70;34.10
25342;DHT22;13298;48.792;9.154;2022-07-18T15:32:06;33.70;34.80
25342;DHT22;13298;48.792;9.154;2022-07-18T15:34:37;33.70;34.40
25342;DHT22;13298;48.792;9.154;2022-07-18T15:37:04;33.80;34.40
25342;DHT22;13298;48.792;9.154;2022-07-18T15:39:31;33.80;33.60
25342;DHT22;13298;48.792;9.154;2022-07-18T15:41:57;33.70;34.20
25342;DHT22;13298;48.792;9.154;2022-07-18T15:44:23;33.70;34.90
25342;DHT22;13298;48.792;9.154;2022-07-18T15:46:49;33.80;34.00
25342;DHT22;13298;48.792;9.154;2022-07-18T15:49:15;33.80;33.90
25342;DHT22;13298;48.792;9.154;2022-07-18T15:51:41;33.80;33.50
25342;DHT22;13298;48.792;9.154;2022-07-18T15:54:08;33.70;33.70
25342;DHT22;13298;48.792;9.154;2022-07-18T15:56:34;33.70;33.40
25342;DHT22;13298;48.792;9.154;2022-07-18T15:59:00;33.80;33.60
25342;DHT22;13298;48.792;9.154;2022-07-18T16:01:26;33.80;33.70
25342;DHT22;13298;48.792;9.154;2022-07-18T16:03:51;33.80;34.00
25342;DHT22;13298;48.792;9.154;2022-07-18T16:06:17;33.90;33.90
25342;DHT22;13298;48.792;9.154;2022-07-18T16:08:43;33.90;32.90
25342;DHT22;13298;48.792;9.154;2022-07-18T16:11:09;33.80;32.60
25342;DHT22;13298;48.792;9.154;2022-07-18T16:13:36;33.70;33.60
25342;DHT22;13298;48.792;9.154;2022-07-18T16:16:02;33.70;33.80
25342;DHT22;13298;48.792;9.154;2022-07-18T16:18:28;33.70;33.10
25342;DHT22;13298;48.792;9.154;2022-07-18T16:20:53;33.70;32.80
25342;DHT22;13298;48.792;9.154;2022-07-18T16:23:19;33.80;33.50
25342;DHT22;13298;48.792;9.154;2022-07-18T16:25:45;33.90;33.60
25342;DHT22;13298;48.792;9.154;2022-07-18T16:28:11;34.00;33.20
25342;DHT22;13298;48.792;9.154;2022-07-18T16:30:36;34.10;34.10
25342;DHT22;13298;48.792;9.154;2022-07-18T16:33:02;34.30;33.90
25342;DHT22;13298;48.792;9.154;2022-07-18T16:35:28;34.40;33.10
25342;DHT22;13298;48.792;9.154;2022-07-18T16:37:54;34.50;32.90